sensor_id;sensor_type;location;lat;lon;timestamp;P1;durP1;ratioP1;P2;durP2;ratioP2
52530;SDS011;38441;52.894;6.040;2023-04-01T00:01:48;5.15;;;3.92;;
52530;SDS011;38441;52.894;6.040;2023-04-01T00:04:13;5.68;;;3.60;;
52530;SDS011;38441;52.894;6.040;2023-04-01T00:06:40;4.00;;;3.28;;
52530;SDS011;38441;52.894;6.040;2023-04-01T00:09:06;3.65;;;3.22;;
52530;SDS011;38441;52.894;6.040;2023-04-01T00:11:32;4.88;;;3.08;;
52530;SDS011;38441;52.894;6.040;2023-04-01T00:13:57;3.75;;;2.78;;
52530;SDS011;38441;52.894;6.040;2023-04-01T00:16:23;5.47;;;2.90;;
52530;SDS011;38441;52.894;6.040;2023-04-01T00:18:49;5.88;;;3.03;;
52530;SDS011;38441;52.894;6.040;2023-04-01T00:21:16;4.18;;;2.42;;
52530;SDS011;38441;52.894;6.040;2023-04-01T00:23:41;3.17;;;2.50;;
52530;SDS011;38441;52.894;6.040;2023-04-01T00:26:07;4.13;;;2.47;;
52530;SDS011;38441;52.894;6.040;2023-04-01T00:28:33;3.28;;;2.47;;
52530;SDS011;38441;52.894;6.040;2023-04-01T00:31:03;3.38;;;2.58;;
52530;SDS011;38441;52.894;6.040;2023-04-01T00:33:31;4.13;;;2.55;;
52530;SDS011;38441;52.894;6.040;2023-04-01T00:36:05;4.43;;;2.40;;
52530;SDS011;38441;52.894;6.040;2023-04-01T00:38:41;3.72;;;2.95;;
52530;SDS011;38441;52.894;6.040;2023-04-01T00:41:08;5.03;;;2.72;;
52530;SDS011;38441;52.894;6.040;2023-04-01T00:43:39;4.68;;;3.45;;
52530;SDS011;38441;52.894;6.040;2023-04-01T00:46:05;3.72;;;2.67;;
52530;SDS011;38441;52.894;6.040;2023-04-01T00:48:32;4.00;;;3.05;;
52530;SDS011;38441;52.894;6.040;2023-04-01T00:53:26;3.45;;;2.78;;
52530;SDS011;38441;52.894;6.040;2023-04-01T00:56:09;4.28;;;3.15;;
52530;SDS011;38441;52.894;6.040;2023-04-01T00:58:40;5.35;;;3.60;;
52530;SDS011;38441;52.894;6.040;2023-04-01T01:01:08;5.47;;;3.50;;
52530;SDS011;38441;52.894;6.040;2023-04-01T01:03:34;4.88;;;3.20;;
52530;SDS011;38441;52.894;6.040;2023-04-01T01:06:04;5.32;;;3.92;;
52530;SDS011;38441;52.894;6.040;2023-04-01T01:09:03;7.55;;;3.50;;
52530;SDS011;38441;52.894;6.040;2023-04-01T01:11:47;4.28;;;3.30;;
52530;SDS011;38441;52.894;6.040;2023-04-01T01:14:25;3.50;;;3.00;;
52530;SDS011;38441;52.894;6.040;2023-04-01T01:17:02;3.45;;;3.08;;
52530;SDS011;38441;52.894;6.040;2023-04-01T01:19:46;4.55;;;3.00;;
52530;SDS011;38441;52.894;6.040;2023-04-01T01:22:40;4.15;;;3.15;;
52530;SDS011;38441;52.894;6.040;2023-04-01T01:27:41;3.80;;;3.13;;
52530;SDS011;38441;52.894;6.040;2023-04-01T01:30:30;4.35;;;3.30;;
52530;SDS011;38441;52.894;6.040;2023-04-01T01:35:57;4.93;;;3.42;;
52530;SDS011;38441;52.894;6.040;2023-04-01T01:38:27;4.30;;;3.35;;
52530;SDS011;38441;52.894;6.040;2023-04-01T01:40:56;6.25;;;3.58;;
52530;SDS011;38441;52.894;6.040;2023-04-01T01:43:24;5.03;;;3.42;;
52530;SDS011;38441;52.894;6.040;2023-04-01T01:45:55;5.85;;;3.45;;
52530;SDS011;38441;52.894;6.040;2023-04-01T01:48:23;5.88;;;3.70;;
52530;SDS011;38441;52.894;6.040;2023-04-01T01:50:51;5.22;;;3.22;;
52530;SDS011;38441;52.894;6.040;2023-04-01T01:53:18;4.20;;;3.33;;
52530;SDS011;38441;52.894;6.040;2023-04-01T01:55:44;4.93;;;3.83;;
52530;SDS011;38441;52.894;6.040;2023-04-01T01:58:13;4.68;;;3.42;;
52530;SDS011;38441;52.894;6.040;2023-04-01T02:01:05;4.53;;;3.67;;
52530;SDS011;38441;52.894;6.040;2023-04-01T02:03:34;4.55;;;3.60;;
52530;SDS011;38441;52.894;6.040;2023-04-01T02:06:03;5.10;;;3.70;;
52530;SDS011;38441;52.894;6.040;2023-04-01T02:08:34;5.07;;;3.75;;
52530;SDS011;38441;52.894;6.040;2023-04-01T02:11:08;4.88;;;3.90;;
52530;SDS011;38441;52.894;6.040;2023-04-01T02:16:11;5.55;;;3.80;;
52530;SDS011;38441;52.894;6.040;2023-04-01T02:18:46;4.85;;;3.67;;
52530;SDS011;38441;52.894;6.040;2023-04-01T02:21:15;4.30;;;3.58;;
52530;SDS011;38441;52.894;6.040;2023-04-01T02:23:43;5.28;;;3.60;;
52530;SDS011;38441;52.894;6.040;2023-04-01T02:26:11;6.30;;;4.05;;
52530;SDS011;38441;52.894;6.040;2023-04-01T02:28:38;5.18;;;4.03;;
52530;SDS011;38441;52.894;6.040;2023-04-01T02:31:06;6.68;;;3.75;;
52530;SDS011;38441;52.894;6.040;2023-04-01T02:33:33;4.70;;;3.85;;
52530;SDS011;38441;52.894;6.040;2023-04-01T02:35:59;5.63;;;3.80;;
52530;SDS011;38441;52.894;6.040;2023-04-01T02:38:25;4.68;;;3.53;;
52530;SDS011;38441;52.894;6.040;2023-04-01T02:40:52;5.03;;;3.78;;
52530;SDS011;38441;52.894;6.040;2023-04-01T02:43:26;5.15;;;3.78;;
52530;SDS011;38441;52.894;6.040;2023-04-01T02:45:52;5.28;;;3.70;;
52530;SDS011;38441;52.894;6.040;2023-04-01T02:48:18;5.55;;;3.97;;
52530;SDS011;38441;52.894;6.040;2023-04-01T02:50:43;6.40;;;4.07;;
52530;SDS011;38441;52.894;6.040;2023-04-01T02:53:09;4.55;;;3.70;;
52530;SDS011;38441;52.894;6.040;2023-04-01T02:55:35;5.32;;;3.67;;
52530;SDS011;38441;52.894;6.040;2023-04-01T02:58:01;5.75;;;3.55;;
52530;SDS011;38441;52.894;6.040;2023-04-01T03:00:26;3.80;;;3.20;;
52530;SDS011;38441;52.894;6.040;2023-04-01T03:02:52;3.50;;;2.92;;
52530;SDS011;38441;52.894;6.040;2023-04-01T03:05:18;3.75;;;3.00;;
52530;SDS011;38441;52.894;6.040;2023-04-01T03:07:44;4.03;;;3.05;;
52530;SDS011;38441;52.894;6.040;2023-04-01T03:10:10;4.20;;;2.80;;
52530;SDS011;38441;52.894;6.040;2023-04-01T03:12:36;3.15;;;2.33;;
52530;SDS011;38441;52.894;6.040;2023-04-01T03:15:02;4.07;;;2.83;;
52530;SDS011;38441;52.894;6.040;2023-04-01T03:17:28;4.80;;;2.30;;
52530;SDS011;38441;52.894;6.040;2023-04-01T03:19:53;2.40;;;1.92;;
52530;SDS011;38441;52.894;6.040;2023-04-01T03:22:19;2.30;;;1.83;;
52530;SDS011;38441;52.894;6.040;2023-04-01T03:24:49;2.92;;;2.00;;
52530;SDS011;38441;52.894;6.040;2023-04-01T03:27:15;2.20;;;1.90;;
52530;SDS011;38441;52.894;6.040;2023-04-01T03:29:41;2.28;;;1.70;;
52530;SDS011;38441;52.894;6.040;2023-04-01T03:32:06;1.98;;;1.52;;
52530;SDS011;38441;52.894;6.040;2023-04-01T03:34:32;1.90;;;1.50;;
52530;SDS011;38441;52.894;6.040;2023-04-01T03:36:58;2.42;;;1.55;;
52530;SDS011;38441;52.894;6.040;2023-04-01T03:39:23;1.60;;;1.50;;
52530;SDS011;38441;52.894;6.040;2023-04-01T03:41:50;2.58;;;1.60;;
52530;SDS011;38441;52.894;6.040;2023-04-01T03:44:15;2.35;;;1.55;;
52530;SDS011;38441;52.894;6.040;2023-04-01T03:46:41;2.38;;;1.75;;
52530;SDS011;38441;52.894;6.040;2023-04-01T03:49:07;2.65;;;1.63;;
52530;SDS011;38441;52.894;6.040;2023-04-01T03:51:40;1.95;;;1.50;;
52530;SDS011;38441;52.894;6.040;2023-04-01T03:54:08;2.05;;;1.48;;
52530;SDS011;38441;52.894;6.040;2023-04-01T03:56:34;2.35;;;1.67;;
52530;SDS011;38441;52.894;6.040;2023-04-01T03:59:04;1.83;;;1.65;;
52530;SDS011;38441;52.894;6.040;2023-04-01T04:01:31;2.47;;;2.00;;
52530;SDS011;38441;52.894;6.040;2023-04-01T04:03:57;2.60;;;1.83;;
52530;SDS011;38441;52.894;6.040;2023-04-01T04:06:24;3.78;;;1.90;;
52530;SDS011;38441;52.894;6.040;2023-04-01T04:08:50;2.28;;;1.70;;
52530;SDS011;38441;52.894;6.040;2023-04-01T04:11:16;2.30;;;1.58;;
52530;SDS011;38441;52.894;6.040;2023-04-01T04:13:43;2.58;;;2.00;;
52530;SDS011;38441;52.894;6.040;2023-04-01T04:16:09;2.42;;;1.80;;
52530;SDS011;38441;52.894;6.040;2023-04-01T04:18:35;2.92;;;2.00;;
52530;SDS011;38441;52.894;6.040;2023-04-01T04:21:01;2.75;;;1.85;;
52530;SDS011;38441;52.894;6.040;2023-04-01T04:23:27;2.50;;;1.95;;
52530;SDS011;38441;52.894;6.040;2023-04-01T04:25:59;2.30;;;1.90;;
52530;SDS011;38441;52.894;6.040;2023-04-01T04:28:27;2.50;;;1.83;;
52530;SDS011;38441;52.894;6.040;2023-04-01T04:30:53;2.65;;;2.13;;
52530;SDS011;38441;52.894;6.040;2023-04-01T04:33:19;3.42;;;2.30;;
52530;SDS011;38441;52.894;6.040;2023-04-01T04:35:45;2.72;;;1.90;;
52530;SDS011;38441;52.894;6.040;2023-04-01T04:38:11;2.85;;;1.90;;
52530;SDS011;38441;52.894;6.040;2023-04-01T04:40:37;3.45;;;2.10;;
52530;SDS011;38441;52.894;6.040;2023-04-01T04:43:03;3.10;;;2.05;;
52530;SDS011;38441;52.894;6.040;2023-04-01T04:45:29;2.70;;;2.00;;
52530;SDS011;38441;52.894;6.040;2023-04-01T04:47:55;3.05;;;2.10;;
52530;SDS011;38441;52.894;6.040;2023-04-01T04:50:21;1.70;;;1.40;;
52530;SDS011;38441;52.894;6.040;2023-04-01T04:52:48;2.50;;;1.88;;
52530;SDS011;38441;52.894;6.040;2023-04-01T04:55:13;2.80;;;1.65;;
52530;SDS011;38441;52.894;6.040;2023-04-01T04:57:40;2.70;;;1.90;;
52530;SDS011;38441;52.894;6.040;2023-04-01T05:00:06;2.92;;;1.85;;
52530;SDS011;38441;52.894;6.040;2023-04-01T05:02:32;2.78;;;1.88;;
52530;SDS011;38441;52.894;6.040;2023-04-01T05:04:58;3.90;;;1.90;;
52530;SDS011;38441;52.894;6.040;2023-04-01T05:07:24;3.08;;;2.10;;
52530;SDS011;38441;52.894;6.040;2023-04-01T05:09:49;2.78;;;2.10;;
52530;SDS011;38441;52.894;6.040;2023-04-01T05:12:15;5.55;;;2.22;;
52530;SDS011;38441;52.894;6.040;2023-04-01T05:14:41;3.10;;;2.30;;
52530;SDS011;38441;52.894;6.040;2023-04-01T05:17:12;4.13;;;2.30;;
52530;SDS011;38441;52.894;6.040;2023-04-01T05:19:38;4.15;;;2.55;;
52530;SDS011;38441;52.894;6.040;2023-04-01T05:22:05;3.17;;;2.38;;
52530;SDS011;38441;52.894;6.040;2023-04-01T05:24:31;4.45;;;2.97;;
52530;SDS011;38441;52.894;6.040;2023-04-01T05:26:57;4.20;;;2.85;;
52530;SDS011;38441;52.894;6.040;2023-04-01T05:29:23;5.90;;;3.33;;
52530;SDS011;38441;52.894;6.040;2023-04-01T05:31:49;5.70;;;3.30;;
52530;SDS011;38441;52.894;6.040;2023-04-01T05:34:15;5.38;;;4.07;;
52530;SDS011;38441;52.894;6.040;2023-04-01T05:36:41;6.80;;;4.07;;
52530;SDS011;38441;52.894;6.040;2023-04-01T05:39:07;6.75;;;4.00;;
52530;SDS011;38441;52.894;6.040;2023-04-01T05:41:37;5.95;;;4.38;;
52530;SDS011;38441;52.894;6.040;2023-04-01T05:44:03;5.55;;;4.18;;
52530;SDS011;38441;52.894;6.040;2023-04-01T05:46:30;6.53;;;4.22;;
52530;SDS011;38441;52.894;6.040;2023-04-01T05:48:56;5.97;;;4.57;;
52530;SDS011;38441;52.894;6.040;2023-04-01T05:51:22;7.18;;;5.15;;
52530;SDS011;38441;52.894;6.040;2023-04-01T05:53:47;7.43;;;4.60;;
52530;SDS011;38441;52.894;6.040;2023-04-01T05:56:13;6.78;;;4.78;;
52530;SDS011;38441;52.894;6.040;2023-04-01T05:58:39;7.63;;;5.50;;
52530;SDS011;38441;52.894;6.040;2023-04-01T06:01:09;7.25;;;5.40;;
52530;SDS011;38441;52.894;6.040;2023-04-01T06:03:36;6.87;;;5.40;;
52530;SDS011;38441;52.894;6.040;2023-04-01T06:06:02;7.50;;;5.68;;
52530;SDS011;38441;52.894;6.040;2023-04-01T06:08:29;6.95;;;5.28;;
52530;SDS011;38441;52.894;6.040;2023-04-01T06:16:39;7.13;;;5.30;;
52530;SDS011;38441;52.894;6.040;2023-04-01T06:33:31;8.23;;;5.68;;
52530;SDS011;38441;52.894;6.040;2023-04-01T06:39:26;6.60;;;5.15;;
52530;SDS011;38441;52.894;6.040;2023-04-01T06:45:01;7.05;;;5.07;;
52530;SDS011;38441;52.894;6.040;2023-04-01T06:47:50;8.75;;;5.45;;
52530;SDS011;38441;52.894;6.040;2023-04-01T06:53:47;7.70;;;5.05;;
52530;SDS011;38441;52.894;6.040;2023-04-01T06:56:27;11.18;;;8.10;;
52530;SDS011;38441;52.894;6.040;2023-04-01T07:01:54;6.60;;;4.72;;
52530;SDS011;38441;52.894;6.040;2023-04-01T07:04:25;7.00;;;5.35;;
52530;SDS011;38441;52.894;6.040;2023-04-01T07:07:00;8.45;;;6.75;;
52530;SDS011;38441;52.894;6.040;2023-04-01T07:09:31;43.08;;;28.05;;
52530;SDS011;38441;52.894;6.040;2023-04-01T07:12:00;10.57;;;6.43;;
52530;SDS011;38441;52.894;6.040;2023-04-01T07:14:36;7.35;;;4.97;;
52530;SDS011;38441;52.894;6.040;2023-04-01T07:22:26;27.08;;;13.10;;
52530;SDS011;38441;52.894;6.040;2023-04-01T07:24:56;5.95;;;4.20;;
52530;SDS011;38441;52.894;6.040;2023-04-01T07:27:26;5.88;;;3.30;;
52530;SDS011;38441;52.894;6.040;2023-04-01T07:29:52;10.25;;;5.68;;
52530;SDS011;38441;52.894;6.040;2023-04-01T07:35:34;19.50;;;9.88;;
52530;SDS011;38441;52.894;6.040;2023-04-01T07:38:20;6.80;;;3.13;;
52530;SDS011;38441;52.894;6.040;2023-04-01T07:46:27;2.47;;;1.60;;
52530;SDS011;38441;52.894;6.040;2023-04-01T07:49:14;3.42;;;2.00;;
52530;SDS011;38441;52.894;6.040;2023-04-01T07:51:56;6.55;;;3.00;;
52530;SDS011;38441;52.894;6.040;2023-04-01T07:54:32;18.52;;;11.85;;
52530;SDS011;38441;52.894;6.040;2023-04-01T08:00:03;8.70;;;5.82;;
52530;SDS011;38441;52.894;6.040;2023-04-01T08:02:56;8.30;;;6.25;;
52530;SDS011;38441;52.894;6.040;2023-04-01T08:05:34;7.13;;;5.00;;
52530;SDS011;38441;52.894;6.040;2023-04-01T08:11:06;11.32;;;8.50;;
52530;SDS011;38441;52.894;6.040;2023-04-01T08:13:40;10.13;;;7.05;;
52530;SDS011;38441;52.894;6.040;2023-04-01T08:16:20;8.63;;;6.28;;
52530;SDS011;38441;52.894;6.040;2023-04-01T08:21:35;8.13;;;6.28;;
52530;SDS011;38441;52.894;6.040;2023-04-01T08:24:52;11.35;;;9.13;;
52530;SDS011;38441;52.894;6.040;2023-04-01T08:27:06;10.18;;;7.38;;
52530;SDS011;38441;52.894;6.040;2023-04-01T08:29:44;10.38;;;7.28;;
52530;SDS011;38441;52.894;6.040;2023-04-01T08:32:16;11.05;;;7.70;;
52530;SDS011;38441;52.894;6.040;2023-04-01T08:34:47;9.60;;;7.35;;
52530;SDS011;38441;52.894;6.040;2023-04-01T08:37:21;8.25;;;6.72;;
52530;SDS011;38441;52.894;6.040;2023-04-01T08:39:51;9.75;;;7.43;;
52530;SDS011;38441;52.894;6.040;2023-04-01T08:53:38;9.73;;;7.80;;
52530;SDS011;38441;52.894;6.040;2023-04-01T08:56:34;9.73;;;7.97;;
52530;SDS011;38441;52.894;6.040;2023-04-01T08:59:21;11.88;;;9.60;;
52530;SDS011;38441;52.894;6.040;2023-04-01T09:02:20;11.88;;;9.00;;
52530;SDS011;38441;52.894;6.040;2023-04-01T09:08:02;12.82;;;8.50;;
52530;SDS011;38441;52.894;6.040;2023-04-01T09:19:31;11.77;;;9.52;;
52530;SDS011;38441;52.894;6.040;2023-04-01T09:27:46;12.93;;;9.35;;
52530;SDS011;38441;52.894;6.040;2023-04-01T09:30:39;14.30;;;10.77;;
52530;SDS011;38441;52.894;6.040;2023-04-01T09:36:02;15.27;;;10.57;;
52530;SDS011;38441;52.894;6.040;2023-04-01T09:38:49;13.93;;;10.82;;
52530;SDS011;38441;52.894;6.040;2023-04-01T09:44:15;14.45;;;10.75;;
52530;SDS011;38441;52.894;6.040;2023-04-01T09:52:43;15.13;;;11.45;;
52530;SDS011;38441;52.894;6.040;2023-04-01T09:58:12;13.35;;;9.98;;
52530;SDS011;38441;52.894;6.040;2023-04-01T10:00:55;14.57;;;10.88;;
52530;SDS011;38441;52.894;6.040;2023-04-01T10:12:30;13.13;;;10.48;;
52530;SDS011;38441;52.894;6.040;2023-04-01T10:15:30;12.77;;;9.10;;
52530;SDS011;38441;52.894;6.040;2023-04-01T10:24:00;15.80;;;10.65;;
52530;SDS011;38441;52.894;6.040;2023-04-01T10:49:02;9.07;;;5.97;;
52530;SDS011;38441;52.894;6.040;2023-04-01T10:55:00;6.85;;;5.30;;
52530;SDS011;38441;52.894;6.040;2023-04-01T11:12:27;5.95;;;4.00;;
52530;SDS011;38441;52.894;6.040;2023-04-01T11:23:11;5.32;;;4.18;;
52530;SDS011;38441;52.894;6.040;2023-04-01T11:36:46;5.45;;;4.45;;
52530;SDS011;38441;52.894;6.040;2023-04-01T11:45:43;5.70;;;4.32;;
52530;SDS011;38441;52.894;6.040;2023-04-01T11:56:37;4.90;;;4.35;;
52530;SDS011;38441;52.894;6.040;2023-04-01T11:59:29;7.40;;;4.65;;
52530;SDS011;38441;52.894;6.040;2023-04-01T12:13:14;4.30;;;3.80;;
52530;SDS011;38441;52.894;6.040;2023-04-01T12:15:58;4.93;;;3.85;;
52530;SDS011;38441;52.894;6.040;2023-04-01T12:18:53;5.03;;;4.10;;
52530;SDS011;38441;52.894;6.040;2023-04-01T12:37:58;3.88;;;2.97;;
52530;SDS011;38441;52.894;6.040;2023-04-01T12:46:41;4.70;;;3.08;;
52530;SDS011;38441;52.894;6.040;2023-04-01T12:49:39;4.25;;;3.42;;
52530;SDS011;38441;52.894;6.040;2023-04-01T12:52:15;5.20;;;3.95;;
52530;SDS011;38441;52.894;6.040;2023-04-01T12:55:07;8.83;;;4.53;;
52530;SDS011;38441;52.894;6.040;2023-04-01T13:03:39;6.38;;;4.03;;
52530;SDS011;38441;52.894;6.040;2023-04-01T13:09:04;4.57;;;3.42;;
52530;SDS011;38441;52.894;6.040;2023-04-01T13:14:29;3.97;;;3.28;;
52530;SDS011;38441;52.894;6.040;2023-04-01T13:17:27;3.80;;;2.83;;
52530;SDS011;38441;52.894;6.040;2023-04-01T13:23:07;3.20;;;2.65;;
52530;SDS011;38441;52.894;6.040;2023-04-01T13:28:38;2.90;;;2.58;;
52530;SDS011;38441;52.894;6.040;2023-04-01T13:36:42;3.95;;;2.85;;
52530;SDS011;38441;52.894;6.040;2023-04-01T13:45:03;3.65;;;2.88;;
52530;SDS011;38441;52.894;6.040;2023-04-01T14:10:36;2.45;;;1.98;;
52530;SDS011;38441;52.894;6.040;2023-04-01T14:16:07;4.22;;;2.42;;
52530;SDS011;38441;52.894;6.040;2023-04-01T14:19:03;2.65;;;2.42;;
52530;SDS011;38441;52.894;6.040;2023-04-01T14:29:54;2.72;;;2.20;;
52530;SDS011;38441;52.894;6.040;2023-04-01T14:39:04;2.45;;;1.88;;
52530;SDS011;38441;52.894;6.040;2023-04-01T14:43:53;2.95;;;1.65;;
52530;SDS011;38441;52.894;6.040;2023-04-01T14:49:48;2.15;;;1.50;;
52530;SDS011;38441;52.894;6.040;2023-04-01T14:54:47;2.08;;;1.75;;
52530;SDS011;38441;52.894;6.040;2023-04-01T15:17:01;2.50;;;1.80;;
52530;SDS011;38441;52.894;6.040;2023-04-01T15:19:54;2.13;;;1.55;;
52530;SDS011;38441;52.894;6.040;2023-04-01T15:34:24;2.17;;;1.60;;
52530;SDS011;38441;52.894;6.040;2023-04-01T15:37:01;2.58;;;1.52;;
52530;SDS011;38441;52.894;6.040;2023-04-01T15:39:54;2.00;;;1.63;;
52530;SDS011;38441;52.894;6.040;2023-04-01T15:46:20;2.63;;;1.52;;
52530;SDS011;38441;52.894;6.040;2023-04-01T15:54:20;1.95;;;1.48;;
52530;SDS011;38441;52.894;6.040;2023-04-01T15:57:08;1.38;;;1.23;;
52530;SDS011;38441;52.894;6.040;2023-04-01T16:05:01;1.92;;;1.33;;
52530;SDS011;38441;52.894;6.040;2023-04-01T16:07:55;1.90;;;1.50;;
52530;SDS011;38441;52.894;6.040;2023-04-01T16:21:48;3.30;;;1.33;;
52530;SDS011;38441;52.894;6.040;2023-04-01T16:24:23;2.50;;;1.40;;
52530;SDS011;38441;52.894;6.040;2023-04-01T16:27:20;2.70;;;1.65;;
52530;SDS011;38441;52.894;6.040;2023-04-01T16:35:25;2.53;;;1.40;;
52530;SDS011;38441;52.894;6.040;2023-04-01T16:38:04;3.50;;;1.98;;
52530;SDS011;38441;52.894;6.040;2023-04-01T16:43:41;3.35;;;1.90;;
52530;SDS011;38441;52.894;6.040;2023-04-01T16:46:21;3.80;;;2.20;;
52530;SDS011;38441;52.894;6.040;2023-04-01T16:48:59;3.35;;;2.05;;
52530;SDS011;38441;52.894;6.040;2023-04-01T16:52:03;5.07;;;1.98;;
52530;SDS011;38441;52.894;6.040;2023-04-01T16:57:11;2.88;;;1.90;;
52530;SDS011;38441;52.894;6.040;2023-04-01T16:59:54;3.80;;;2.30;;
52530;SDS011;38441;52.894;6.040;2023-04-01T17:02:34;3.53;;;2.33;;
52530;SDS011;38441;52.894;6.040;2023-04-01T17:05:08;4.35;;;2.25;;
52530;SDS011;38441;52.894;6.040;2023-04-01T17:10:21;3.58;;;2.50;;
52530;SDS011;38441;52.894;6.040;2023-04-01T17:15:34;4.35;;;2.40;;
52530;SDS011;38441;52.894;6.040;2023-04-01T17:18:09;3.80;;;2.50;;
52530;SDS011;38441;52.894;6.040;2023-04-01T17:26:32;6.32;;;3.03;;
52530;SDS011;38441;52.894;6.040;2023-04-01T17:39:59;4.93;;;2.92;;
52530;SDS011;38441;52.894;6.040;2023-04-01T17:46:01;6.70;;;2.90;;
52530;SDS011;38441;52.894;6.040;2023-04-01T17:49:01;5.20;;;3.30;;
52530;SDS011;38441;52.894;6.040;2023-04-01T17:51:33;6.85;;;3.03;;
52530;SDS011;38441;52.894;6.040;2023-04-01T18:02:43;5.25;;;2.97;;
52530;SDS011;38441;52.894;6.040;2023-04-01T18:05:44;6.80;;;3.53;;
52530;SDS011;38441;52.894;6.040;2023-04-01T18:17:04;5.63;;;3.60;;
52530;SDS011;38441;52.894;6.040;2023-04-01T18:22:41;6.75;;;3.67;;
52530;SDS011;38441;52.894;6.040;2023-04-01T18:25:19;4.65;;;3.25;;
52530;SDS011;38441;52.894;6.040;2023-04-01T18:30:55;7.63;;;3.58;;
52530;SDS011;38441;52.894;6.040;2023-04-01T18:41:36;5.28;;;3.50;;
52530;SDS011;38441;52.894;6.040;2023-04-01T18:52:43;5.35;;;3.35;;
52530;SDS011;38441;52.894;6.040;2023-04-01T18:57:52;6.90;;;3.63;;
52530;SDS011;38441;52.894;6.040;2023-04-01T19:00:35;5.60;;;3.33;;
52530;SDS011;38441;52.894;6.040;2023-04-01T19:03:24;6.15;;;3.38;;
52530;SDS011;38441;52.894;6.040;2023-04-01T19:06:30;8.05;;;4.10;;
52530;SDS011;38441;52.894;6.040;2023-04-01T19:09:15;6.40;;;3.65;;
52530;SDS011;38441;52.894;6.040;2023-04-01T19:16:57;7.28;;;3.70;;
52530;SDS011;38441;52.894;6.040;2023-04-01T19:19:38;5.55;;;3.30;;
52530;SDS011;38441;52.894;6.040;2023-04-01T19:24:49;7.90;;;3.90;;
52530;SDS011;38441;52.894;6.040;2023-04-01T19:27:37;6.05;;;3.53;;
52530;SDS011;38441;52.894;6.040;2023-04-01T19:30:17;7.82;;;3.53;;
52530;SDS011;38441;52.894;6.040;2023-04-01T19:38:17;6.82;;;3.88;;
52530;SDS011;38441;52.894;6.040;2023-04-01T19:46:48;7.90;;;3.90;;
52530;SDS011;38441;52.894;6.040;2023-04-01T19:49:41;9.70;;;4.07;;
52530;SDS011;38441;52.894;6.040;2023-04-01T19:52:35;7.07;;;3.85;;
52530;SDS011;38441;52.894;6.040;2023-04-01T19:55:14;7.00;;;3.90;;
52530;SDS011;38441;52.894;6.040;2023-04-01T19:58:26;7.97;;;3.92;;
52530;SDS011;38441;52.894;6.040;2023-04-01T20:01:19;6.68;;;4.00;;
52530;SDS011;38441;52.894;6.040;2023-04-01T20:04:03;6.80;;;4.50;;
52530;SDS011;38441;52.894;6.040;2023-04-01T20:12:11;10.80;;;5.18;;
52530;SDS011;38441;52.894;6.040;2023-04-01T20:14:51;7.70;;;4.40;;
52530;SDS011;38441;52.894;6.040;2023-04-01T20:17:32;7.28;;;4.50;;
52530;SDS011;38441;52.894;6.040;2023-04-01T20:28:00;12.10;;;5.32;;
52530;SDS011;38441;52.894;6.040;2023-04-01T20:33:13;10.23;;;5.32;;
52530;SDS011;38441;52.894;6.040;2023-04-01T20:41:52;10.85;;;5.25;;
52530;SDS011;38441;52.894;6.040;2023-04-01T20:44:41;10.73;;;5.35;;
52530;SDS011;38441;52.894;6.040;2023-04-01T20:50:01;8.90;;;5.45;;
52530;SDS011;38441;52.894;6.040;2023-04-01T20:52:42;9.27;;;6.00;;
52530;SDS011;38441;52.894;6.040;2023-04-01T20:58:22;8.30;;;5.20;;
52530;SDS011;38441;52.894;6.040;2023-04-01T21:01:10;9.73;;;5.25;;
52530;SDS011;38441;52.894;6.040;2023-04-01T21:06:44;9.63;;;5.55;;
52530;SDS011;38441;52.894;6.040;2023-04-01T21:09:22;11.57;;;6.30;;
52530;SDS011;38441;52.894;6.040;2023-04-01T21:12:17;9.63;;;5.20;;
52530;SDS011;38441;52.894;6.040;2023-04-01T21:14:49;9.07;;;4.97;;
52530;SDS011;38441;52.894;6.040;2023-04-01T21:17:51;11.82;;;5.35;;
52530;SDS011;38441;52.894;6.040;2023-04-01T21:25:28;9.73;;;4.80;;
52530;SDS011;38441;52.894;6.040;2023-04-01T21:28:17;10.40;;;5.25;;
52530;SDS011;38441;52.894;6.040;2023-04-01T21:33:48;8.20;;;4.55;;
52530;SDS011;38441;52.894;6.040;2023-04-01T21:36:24;8.85;;;4.90;;
52530;SDS011;38441;52.894;6.040;2023-04-01T21:41:44;7.22;;;4.07;;
52530;SDS011;38441;52.894;6.040;2023-04-01T21:44:39;10.20;;;5.10;;
52530;SDS011;38441;52.894;6.040;2023-04-01T21:50:27;9.13;;;3.95;;
52530;SDS011;38441;52.894;6.040;2023-04-01T21:56:05;7.35;;;4.07;;
52530;SDS011;38441;52.894;6.040;2023-04-01T21:59:07;8.15;;;3.90;;
52530;SDS011;38441;52.894;6.040;2023-04-01T22:07:14;8.73;;;3.75;;
52530;SDS011;38441;52.894;6.040;2023-04-01T22:10:03;8.20;;;4.15;;
52530;SDS011;38441;52.894;6.040;2023-04-01T22:15:40;8.75;;;4.28;;
52530;SDS011;38441;52.894;6.040;2023-04-01T22:18:43;6.80;;;3.35;;
52530;SDS011;38441;52.894;6.040;2023-04-01T22:21:25;8.38;;;3.97;;
52530;SDS011;38441;52.894;6.040;2023-04-01T22:26:25;6.93;;;3.70;;
52530;SDS011;38441;52.894;6.040;2023-04-01T22:29:24;8.52;;;4.03;;
52530;SDS011;38441;52.894;6.040;2023-04-01T22:32:05;7.93;;;3.47;;
52530;SDS011;38441;52.894;6.040;2023-04-01T22:37:06;7.22;;;3.70;;
52530;SDS011;38441;52.894;6.040;2023-04-01T22:42:18;6.78;;;4.40;;
52530;SDS011;38441;52.894;6.040;2023-04-01T22:44:56;7.32;;;3.72;;
52530;SDS011;38441;52.894;6.040;2023-04-01T22:47:57;7.25;;;3.85;;
52530;SDS011;38441;52.894;6.040;2023-04-01T22:50:29;9.75;;;4.00;;
52530;SDS011;38441;52.894;6.040;2023-04-01T22:53:05;8.00;;;3.45;;
52530;SDS011;38441;52.894;6.040;2023-04-01T22:55:38;6.63;;;4.13;;
52530;SDS011;38441;52.894;6.040;2023-04-01T22:58:08;6.45;;;3.30;;
52530;SDS011;38441;52.894;6.040;2023-04-01T23:00:43;6.72;;;3.58;;
52530;SDS011;38441;52.894;6.040;2023-04-01T23:06:31;6.80;;;4.07;;
52530;SDS011;38441;52.894;6.040;2023-04-01T23:09:17;6.30;;;3.70;;
52530;SDS011;38441;52.894;6.040;2023-04-01T23:11:53;7.78;;;3.35;;
52530;SDS011;38441;52.894;6.040;2023-04-01T23:19:24;6.93;;;3.95;;
52530;SDS011;38441;52.894;6.040;2023-04-01T23:22:08;8.88;;;4.03;;
52530;SDS011;38441;52.894;6.040;2023-04-01T23:24:40;8.02;;;3.88;;
52530;SDS011;38441;52.894;6.040;2023-04-01T23:27:29;5.90;;;3.55;;
52530;SDS011;38441;52.894;6.040;2023-04-01T23:29:59;12.90;;;4.03;;
52530;SDS011;38441;52.894;6.040;2023-04-01T23:32:25;8.45;;;3.60;;
52530;SDS011;38441;52.894;6.040;2023-04-01T23:34:55;7.20;;;3.88;;
52530;SDS011;38441;52.894;6.040;2023-04-01T23:37:23;6.32;;;3.65;;
52530;SDS011;38441;52.894;6.040;2023-04-01T23:39:58;7.20;;;3.80;;
52530;SDS011;38441;52.894;6.040;2023-04-01T23:42:27;6.68;;;3.33;;
52530;SDS011;38441;52.894;6.040;2023-04-01T23:44:56;8.45;;;3.42;;
52530;SDS011;38441;52.894;6.040;2023-04-01T23:47:45;8.18;;;3.47;;
52530;SDS011;38441;52.894;6.040;2023-04-01T23:50:17;9.88;;;3.35;;
52530;SDS011;38441;52.894;6.040;2023-04-01T23:53:03;6.82;;;3.40;;
52530;SDS011;38441;52.894;6.040;2023-04-01T23:55:39;6.90;;;3.28;;
52530;SDS011;38441;52.894;6.040;2023-04-01T23:58:23;7.70;;;3.22;;
